Aérodrome :
LOGIN :

S'inscrire | Disclaimer

   EN    FR    IT 

 










Légende :    VFR   VFR Marginal   IFR   IFR Intensif   IFR Très Intensif
Visi : 
Plafond : 
>= 8 km
>= 3000ft
5 à 8 km
1000 à 3000 ft
1500m à 5 km
500 à 1000 ft
800 à 1500m
200 à 500 ft
< 800m
< 200 ft
Symboles :   Orages  Brouillard  Fortes neiges  Fortes précipitations  Vent > 20 kt
SIGMETs :   Divers  Orages  Givrage  Turbulence  Onde Orograph.  Cendres Volcan.






- Altitude de l'aérodrome : 138 ft
- Code IATA : BIO


LEBB - Bilbao

DERNIER METAR :
  • 150400Z 21003KT 140V280 9999 FEW065 11/07 Q1016 NOSIG

METARs EXPIRÉS :
  • 150330Z 21003KT 120V290 9999 FEW060 12/08 Q1015 NOSIG
  • 150300Z 22005KT 170V260 9999 FEW060 11/08 Q1015 NOSIG
  • 150230Z AUTO 23006KT 170V280 9999 SCT067 12/07 Q1015
  • 150200Z AUTO 24005KT 200V280 9999 FEW066 13/07 Q1015

TAF TAF LEBB
Valide du 15 à 00h jusqu'au 16 à 00h UTC


142300Z 1500/1524 24008KT 9999 SCT030 TX20/1513Z TN10/1506Z
PROB40
TEMPO 1500/1506 3000 -RA BKN014
TEMPO 1512/1518 30010KT



MET'MAP, la Météo Aéronautique d'un coup d'oeil ! - Copyright ORBIFLY Décembre 2007 - Disclaimer

ORBIFLY MET'MAP TEAM :

Programmation & Développement : Alexandra Zaïnal
Conception & Développement : Baudouin d'Aumeries
Co-Programmation & Développement : Marc-Olivier Méhu
Soutien technique & logistique : Manuel Goepfert

Contact : metmap@orbifly.com




SOURCES & CREDITS :

   NOAA